Time;durP1;ratioP1;P1;durP2;ratioP2;P2;SDS_P1;SDS_P2;PMS_P1;PMS_P2;Temp;Humidity;BMP_temperature;BMP_pressure;BME280_temperature;BME280_humidity;BME280_pressure;Samples;Min_cycle;Max_cycle;Signal;HPM_P1;HPM_P2
2022/03/29 00:01:42;;;;;;;29.60;13.97;;;13.50;99.90;;;;;;4929452;29;20198;-70
2022/03/29 00:04:08;;;;;;;27.30;13.53;;;13.40;99.90;;;;;;4931095;29;20206;-70
2022/03/29 00:06:35;;;;;;;28.07;13.47;;;13.20;99.90;;;;;;4924535;29;20697;-70
2022/03/29 00:09:03;;;;;;;24.60;12.40;;;13.10;99.90;;;;;;4931463;29;20200;-71
2022/03/29 00:19:06;;;;;;;33.27;15.03;;;12.90;99.90;;;;;;4932132;29;20304;-69
2022/03/29 00:21:33;;;;;;;30.53;15.67;;;13.10;99.90;;;;;;4931610;29;20199;-70
2022/03/29 00:23:59;;;;;;;35.47;15.50;;;13.10;99.90;;;;;;4927532;29;20222;-71
2022/03/29 00:26:26;;;;;;;31.17;15.53;;;13.10;99.90;;;;;;4929070;29;20255;-71
2022/03/29 00:28:53;;;;;;;28.87;14.93;;;13.20;99.90;;;;;;4918844;29;20203;-72
2022/03/29 00:31:20;;;;;;;33.27;14.53;;;13.10;99.90;;;;;;4929230;29;20667;-71
2022/03/29 00:33:47;;;;;;;33.20;16.60;;;13.00;99.90;;;;;;4925732;29;20633;-71
2022/03/29 00:36:15;;;;;;;30.93;15.97;;;13.00;99.90;;;;;;4931203;29;20235;-72
2022/03/29 00:38:42;;;;;;;36.67;15.93;;;13.10;99.90;;;;;;4930566;29;20199;-72
2022/03/29 00:41:09;;;;;;;30.87;15.93;;;13.30;99.90;;;;;;4928208;29;20576;-70
2022/03/29 00:43:36;;;;;;;36.93;16.43;;;13.50;99.90;;;;;;4924711;29;20195;-71
2022/03/29 00:46:03;;;;;;;34.57;15.50;;;13.50;99.90;;;;;;4930285;29;20459;-70
2022/03/29 00:48:30;;;;;;;36.40;16.80;;;13.60;99.90;;;;;;4907185;29;20632;-70
2022/03/29 00:50:57;;;;;;;32.27;16.30;;;13.60;99.90;;;;;;4921153;29;20230;-71
2022/03/29 00:53:24;;;;;;;31.33;15.30;;;13.50;99.90;;;;;;4907378;29;20215;-71
2022/03/29 00:55:54;;;;;;;37.87;16.80;;;13.50;99.90;;;;;;4920578;29;20224;-70
2022/03/29 00:58:21;;;;;;;31.43;15.60;;;13.50;99.90;;;;;;4927927;29;20208;-71
2022/03/29 01:00:48;;;;;;;30.47;15.33;;;13.50;99.90;;;;;;4931783;29;20569;-70
2022/03/29 01:03:15;;;;;;;30.90;14.57;;;13.30;99.90;;;;;;4929793;29;20706;-71
2022/03/29 01:05:42;;;;;;;32.30;15.77;;;13.10;99.90;;;;;;4922807;29;20231;-71
2022/03/29 01:08:10;;;;;;;31.90;15.40;;;12.90;99.90;;;;;;4917746;29;20225;-71
2022/03/29 01:10:37;;;;;;;31.70;15.23;;;12.80;99.90;;;;;;4921593;29;20209;-70
2022/03/29 01:13:06;;;;;;;30.73;14.63;;;12.70;99.90;;;;;;4924971;29;20199;-71
2022/03/29 01:15:36;;;;;;;34.97;16.43;;;12.70;99.90;;;;;;4918750;29;20227;-70
2022/03/29 01:18:05;;;;;;;33.43;16.00;;;12.60;99.90;;;;;;4920047;29;20626;-69
2022/03/29 01:20:32;;;;;;;32.93;15.20;;;12.50;99.90;;;;;;4909418;29;20195;-70
2022/03/29 01:23:01;;;;;;;35.17;14.47;;;12.60;99.90;;;;;;4927295;29;20558;-73
2022/03/29 01:25:35;;;;;;;33.60;14.33;;;12.50;99.90;;;;;;4920964;29;20233;-71
2022/03/29 01:28:03;;;;;;;29.67;14.80;;;12.40;99.90;;;;;;4923896;29;20192;-71
2022/03/29 01:30:30;;;;;;;29.20;14.63;;;12.40;99.90;;;;;;4912599;29;20684;-69
2022/03/29 01:33:00;;;;;;;32.70;14.83;;;12.30;99.90;;;;;;4920529;29;20204;-69
2022/03/29 01:35:27;;;;;;;35.20;15.50;;;12.30;99.90;;;;;;4928573;29;20229;-69
2022/03/29 01:37:54;;;;;;;35.80;14.20;;;12.20;99.90;;;;;;4926179;29;20203;-70
2022/03/29 01:40:23;;;;;;;29.37;13.77;;;12.30;99.90;;;;;;4923639;29;21866;-70
2022/03/29 01:42:58;;;;;;;26.17;12.93;;;12.30;99.90;;;;;;4921966;29;20198;-69
2022/03/29 01:45:30;;;;;;;35.37;15.17;;;12.30;99.90;;;;;;4916308;29;20230;-70
2022/03/29 01:47:57;;;;;;;37.67;15.17;;;12.30;99.90;;;;;;4922832;29;20202;-69
2022/03/29 01:50:25;;;;;;;29.47;13.77;;;12.30;99.90;;;;;;4916647;29;20202;-71
2022/03/29 01:52:53;;;;;;;29.27;13.40;;;12.20;99.90;;;;;;4919341;29;20198;-69
2022/03/29 01:55:21;;;;;;;27.67;14.40;;;12.10;99.90;;;;;;4922277;29;20620;-69
2022/03/29 01:57:49;;;;;;;29.20;14.03;;;12.00;99.90;;;;;;4921068;29;20204;-69
2022/03/29 02:00:33;;;;;;;30.93;14.73;;;11.90;99.90;;;;;;4913941;29;20206;-71
2022/03/29 02:03:06;;;;;;;28.17;14.13;;;11.80;99.90;;;;;;4920426;29;20250;-70
2022/03/29 02:05:33;;;;;;;28.37;14.07;;;11.80;99.90;;;;;;4920786;29;20224;-69
2022/03/29 02:08:02;;;;;;;29.73;14.97;;;11.70;99.90;;;;;;4917257;29;20211;-70
2022/03/29 02:10:29;;;;;;;28.00;14.73;;;11.70;99.90;;;;;;4927736;29;20200;-69
2022/03/29 02:12:56;;;;;;;26.47;13.73;;;11.70;99.90;;;;;;4923454;29;20200;-69
2022/03/29 02:15:23;;;;;;;30.63;14.40;;;11.60;99.90;;;;;;4917984;29;20224;-69
2022/03/29 02:17:50;;;;;;;28.67;14.03;;;11.60;99.90;;;;;;4929053;29;20234;-70
2022/03/29 02:20:18;;;;;;;32.27;14.30;;;11.60;99.90;;;;;;4918630;29;20213;-69
2022/03/29 02:22:45;;;;;;;29.43;14.47;;;11.50;99.90;;;;;;4917151;29;20201;-70
2022/03/29 02:25:13;;;;;;;28.90;14.27;;;11.50;99.90;;;;;;4918755;29;20292;-70
2022/03/29 02:27:41;;;;;;;29.77;14.60;;;11.40;99.90;;;;;;4922562;29;20206;-71
2022/03/29 02:30:11;;;;;;;29.53;13.83;;;11.40;99.90;;;;;;4916565;29;20210;-71
2022/03/29 02:32:38;;;;;;;32.97;13.03;;;11.30;99.90;;;;;;4922978;29;20202;-71
2022/03/29 02:35:05;;;;;;;29.37;14.50;;;11.30;99.90;;;;;;4926828;29;20714;-73
2022/03/29 02:37:32;;;;;;;33.43;14.03;;;11.30;99.90;;;;;;4924954;29;20252;-71
2022/03/29 02:39:59;;;;;;;30.33;14.30;;;11.20;99.90;;;;;;4927311;29;20202;-78
2022/03/29 02:42:26;;;;;;;32.13;13.93;;;11.20;99.90;;;;;;4925431;29;20211;-79
2022/03/29 02:44:53;;;;;;;34.17;14.90;;;11.20;99.90;;;;;;4924301;29;20204;-80
2022/03/29 02:47:20;;;;;;;30.60;13.37;;;11.20;99.90;;;;;;4926271;29;20224;-77
2022/03/29 02:49:49;;;;;;;28.43;13.80;;;11.20;99.90;;;;;;4925774;29;20210;-78
2022/03/29 02:52:16;;;;;;;31.40;14.23;;;11.20;99.90;;;;;;4922958;29;20583;-76
2022/03/29 02:54:43;;;;;;;31.40;13.60;;;11.10;99.90;;;;;;4919625;29;20200;-75
2022/03/29 02:57:10;;;;;;;26.57;13.57;;;11.00;99.90;;;;;;4916126;29;20704;-75
2022/03/29 02:59:37;;;;;;;26.33;13.83;;;11.00;99.90;;;;;;4920128;29;20292;-77
2022/03/29 03:02:04;;;;;;;29.97;13.80;;;11.00;99.90;;;;;;4926557;29;20203;-77
2022/03/29 03:04:31;;;;;;;30.13;15.20;;;11.10;99.90;;;;;;4931096;29;20213;-77
2022/03/29 03:06:58;;;;;;;24.17;13.40;;;11.10;99.90;;;;;;4923928;29;20239;-78
2022/03/29 03:09:25;;;;;;;26.23;14.23;;;11.00;99.90;;;;;;4928756;29;20199;-75
2022/03/29 03:11:51;;;;;;;27.17;13.43;;;11.00;99.90;;;;;;4930735;29;20203;-77
2022/03/29 03:14:18;;;;;;;28.90;14.20;;;10.90;99.90;;;;;;4924740;29;20228;-76
2022/03/29 03:16:44;;;;;;;26.43;14.37;;;10.80;99.90;;;;;;4927534;29;20223;-77
2022/03/29 03:19:31;;;;;;;32.83;15.73;;;10.80;99.90;;;;;;4931478;29;20203;-75
2022/03/29 03:21:58;;;;;;;29.07;14.33;;;10.80;99.90;;;;;;4929578;29;20207;-78
2022/03/29 03:24:25;;;;;;;26.67;14.00;;;10.80;99.90;;;;;;4929453;29;20199;-76
2022/03/29 03:26:51;;;;;;;26.70;14.37;;;10.80;99.90;;;;;;4913133;29;20227;-77
2022/03/29 03:29:18;;;;;;;24.47;13.43;;;10.80;99.90;;;;;;4928404;29;20211;-77
2022/03/29 03:31:45;;;;;;;32.37;14.87;;;10.80;99.90;;;;;;4925486;29;20214;-77
2022/03/29 03:34:11;;;;;;;26.17;13.00;;;10.90;99.90;;;;;;4928201;29;20215;-78
2022/03/29 03:36:38;;;;;;;25.77;13.60;;;10.90;99.90;;;;;;4925381;29;20227;-76
2022/03/29 03:39:05;;;;;;;25.17;12.83;;;10.90;99.90;;;;;;4925165;29;20212;-77
2022/03/29 03:41:32;;;;;;;29.73;14.03;;;10.90;99.90;;;;;;4925669;29;20205;-77
2022/03/29 03:43:58;;;;;;;25.57;13.57;;;10.90;99.90;;;;;;4927904;29;20195;-80
2022/03/29 03:46:25;;;;;;;24.07;13.97;;;10.90;99.90;;;;;;4922826;29;20648;-77
2022/03/29 03:48:52;;;;;;;26.97;13.60;;;10.90;99.90;;;;;;4908926;29;20711;-80
2022/03/29 03:51:19;;;;;;;27.27;13.80;;;10.90;99.90;;;;;;4930475;29;20199;-76
2022/03/29 03:53:46;;;;;;;25.43;14.33;;;10.80;99.90;;;;;;4926282;29;20210;-76
2022/03/29 03:56:13;;;;;;;26.00;14.40;;;10.80;99.90;;;;;;4926317;29;20220;-77
2022/03/29 03:58:39;;;;;;;28.27;14.83;;;10.80;99.90;;;;;;4924942;29;20191;-76
2022/03/29 04:01:11;;;;;;;26.23;13.63;;;10.90;99.90;;;;;;4923656;29;20325;-75
2022/03/29 04:03:38;;;;;;;25.30;12.63;;;10.90;99.90;;;;;;4925134;29;20199;-75
2022/03/29 04:06:05;;;;;;;29.33;14.53;;;10.90;99.90;;;;;;4921311;29;20216;-76
2022/03/29 04:08:32;;;;;;;26.40;14.27;;;10.90;99.90;;;;;;4928164;29;20193;-75
2022/03/29 04:10:59;;;;;;;32.63;16.37;;;10.90;99.90;;;;;;4924909;29;20662;-75
2022/03/29 04:13:26;;;;;;;29.10;14.97;;;10.90;99.90;;;;;;4925060;29;20654;-76
2022/03/29 04:15:53;;;;;;;28.30;15.43;;;11.00;99.90;;;;;;4926902;29;20220;-75
2022/03/29 04:18:19;;;;;;;25.53;14.27;;;11.00;99.90;;;;;;4927813;29;20325;-76
2022/03/29 04:20:46;;;;;;;30.97;15.60;;;10.90;99.90;;;;;;4918527;29;20672;-77
2022/03/29 04:23:13;;;;;;;31.10;16.37;;;11.00;99.90;;;;;;4931327;29;20646;-76
2022/03/29 04:25:39;;;;;;;29.77;15.73;;;10.90;99.90;;;;;;4909397;29;20363;-75
2022/03/29 04:28:06;;;;;;;32.63;15.87;;;10.80;99.90;;;;;;4918561;29;20619;-73
2022/03/29 04:30:33;;;;;;;32.37;15.77;;;10.70;99.90;;;;;;4928716;29;20213;-73
2022/03/29 04:32:59;;;;;;;27.43;14.47;;;10.60;99.90;;;;;;4919198;29;20200;-71
2022/03/29 04:35:27;;;;;;;30.60;15.43;;;10.50;99.90;;;;;;4923727;29;20875;-70
2022/03/29 04:37:53;;;;;;;32.07;15.77;;;10.40;99.90;;;;;;4918475;29;20244;-71
2022/03/29 04:40:21;;;;;;;35.33;16.53;;;10.40;99.90;;;;;;4925486;29;20372;-69
2022/03/29 04:42:49;;;;;;;28.27;14.70;;;10.30;99.90;;;;;;4926962;29;20195;-69
2022/03/29 04:45:17;;;;;;;27.47;15.00;;;10.30;99.90;;;;;;4924607;29;20199;-69
2022/03/29 04:47:46;;;;;;;31.43;15.63;;;10.20;99.90;;;;;;4926601;29;20667;-67
2022/03/29 04:50:15;;;;;;;33.33;15.80;;;10.20;99.90;;;;;;4923674;29;22180;-69
2022/03/29 04:52:44;;;;;;;32.47;16.33;;;10.20;99.90;;;;;;4928412;29;20207;-69
2022/03/29 04:55:17;;;;;;;31.50;16.07;;;10.20;99.90;;;;;;4929215;29;20251;-67
2022/03/29 04:57:45;;;;;;;35.83;15.47;;;10.10;99.90;;;;;;4920363;29;20218;-70
2022/03/29 05:00:14;;;;;;;32.33;16.23;;;10.10;99.90;;;;;;4921060;29;20218;-68
2022/03/29 05:02:41;;;;;;;29.27;15.47;;;10.00;99.90;;;;;;4924603;29;20195;-69
2022/03/29 05:05:09;;;;;;;28.20;13.60;;;10.00;99.90;;;;;;4910766;29;20194;-70
2022/03/29 05:07:37;;;;;;;33.87;16.53;;;10.00;99.90;;;;;;4911260;29;20231;-68
2022/03/29 05:10:06;;;;;;;31.03;15.80;;;10.00;99.90;;;;;;4926728;29;20199;-70
2022/03/29 05:12:39;;;;;;;29.67;15.43;;;9.90;99.90;;;;;;4928935;29;20200;-67
2022/03/29 05:15:07;;;;;;;29.70;15.83;;;9.90;99.90;;;;;;4923002;29;20241;-68
2022/03/29 05:17:35;;;;;;;30.63;15.77;;;9.90;99.90;;;;;;4926481;29;20314;-68
2022/03/29 05:20:04;;;;;;;34.13;16.27;;;9.90;99.90;;;;;;4925147;29;20721;-68
2022/03/29 05:22:30;;;;;;;33.83;16.67;;;9.80;99.90;;;;;;4917261;29;20666;-69
2022/03/29 05:24:57;;;;;;;30.50;15.37;;;9.80;99.90;;;;;;4927689;29;20199;-68
2022/03/29 05:27:24;;;;;;;31.20;15.77;;;9.80;99.90;;;;;;4928855;29;20226;-68
2022/03/29 05:29:51;;;;;;;34.30;17.17;;;9.80;99.90;;;;;;4922514;29;20453;-68
2022/03/29 05:32:18;;;;;;;34.47;18.03;;;10.10;99.90;;;;;;4928524;29;20207;-68
2022/03/29 05:34:45;;;;;;;31.93;16.63;;;10.30;99.90;;;;;;4917254;29;20849;-68
2022/03/29 05:37:13;;;;;;;39.60;16.83;;;10.30;99.90;;;;;;4910873;29;20234;-70
2022/03/29 05:39:43;;;;;;;36.10;16.20;;;10.30;99.90;;;;;;4926314;29;20229;-68
2022/03/29 05:42:10;;;;;;;38.83;17.70;;;10.40;99.90;;;;;;4924504;29;20249;-67
2022/03/29 05:44:38;;;;;;;34.93;16.60;;;10.40;99.90;;;;;;4930416;29;20207;-68
2022/03/29 05:49:52;;;;;;;29.97;14.93;;;10.20;99.90;;;;;;4914171;29;20631;-67
2022/03/29 05:52:21;;;;;;;35.57;16.03;;;10.00;99.90;;;;;;4923623;29;20195;-67
2022/03/29 05:54:47;;;;;;;32.73;15.33;;;10.00;99.90;;;;;;4903145;29;20279;-70
2022/03/29 05:57:16;;;;;;;33.00;15.83;;;10.00;99.90;;;;;;4924021;29;20233;-68
2022/03/29 05:59:43;;;;;;;31.73;15.80;;;10.00;99.90;;;;;;4923155;29;20234;-68
2022/03/29 06:02:10;;;;;;;32.53;15.20;;;10.10;99.90;;;;;;4928425;29;20202;-68
2022/03/29 06:04:39;;;;;;;31.83;16.37;;;10.10;99.90;;;;;;4922676;29;20241;-71
2022/03/29 06:07:07;;;;;;;33.70;16.60;;;10.20;99.90;;;;;;4921372;29;20227;-70
2022/03/29 06:09:35;;;;;;;35.90;16.13;;;10.20;99.90;;;;;;4915317;29;20651;-70
2022/03/29 06:12:03;;;;;;;39.63;16.93;;;10.30;99.90;;;;;;4923870;29;20578;-70
2022/03/29 06:14:29;;;;;;;35.07;16.63;;;10.30;99.90;;;;;;4921011;29;20291;-71
2022/03/29 06:16:56;;;;;;;30.83;15.93;;;10.50;99.90;;;;;;4931697;29;20227;-70
2022/03/29 06:19:23;;;;;;;34.50;16.80;;;10.70;99.90;;;;;;4919715;29;20205;-70
2022/03/29 06:21:49;;;;;;;32.40;16.50;;;10.80;99.90;;;;;;4928464;29;20199;-73
2022/03/29 06:24:16;;;;;;;33.10;16.17;;;10.90;99.90;;;;;;4929024;29;20293;-70
2022/03/29 06:26:43;;;;;;;32.27;17.00;;;11.10;99.90;;;;;;4918594;29;20228;-70
2022/03/29 06:29:11;;;;;;;30.17;16.33;;;11.30;99.90;;;;;;4918410;29;20214;-71
2022/03/29 06:31:38;;;;;;;33.47;16.13;;;11.40;99.90;;;;;;4921827;29;20199;-71
2022/03/29 06:34:06;;;;;;;34.77;17.50;;;11.60;99.90;;;;;;4919745;29;20246;-73
2022/03/29 06:36:32;;;;;;;30.50;16.33;;;11.70;99.90;;;;;;4928689;29;20226;-75
2022/03/29 06:39:02;;;;;;;33.83;16.77;;;11.90;99.90;;;;;;4913097;29;20284;-75
2022/03/29 06:41:30;;;;;;;38.50;16.70;;;12.10;99.90;;;;;;4922483;29;20207;-75
2022/03/29 06:43:57;;;;;;;32.00;16.70;;;12.20;99.90;;;;;;4917334;29;20255;-76
2022/03/29 06:46:24;;;;;;;32.20;16.77;;;12.20;99.90;;;;;;4926187;29;20683;-75
2022/03/29 06:48:51;;;;;;;34.20;16.33;;;12.40;99.90;;;;;;4916889;29;20640;-77
2022/03/29 06:51:18;;;;;;;38.07;18.20;;;12.50;99.90;;;;;;4920815;29;20557;-77
2022/03/29 06:53:45;;;;;;;32.10;16.93;;;12.70;99.90;;;;;;4911759;29;20211;-73
2022/03/29 06:56:12;;;;;;;37.63;18.37;;;12.80;99.90;;;;;;4918802;29;20700;-72
2022/03/29 06:58:39;;;;;;;38.07;19.30;;;13.10;99.90;;;;;;4925691;29;20232;-73
2022/03/29 07:01:05;;;;;;;32.90;18.20;;;13.20;99.90;;;;;;4915538;29;20192;-72
2022/03/29 07:03:35;;;;;;;35.10;18.07;;;13.40;99.90;;;;;;4921326;29;20249;-71
2022/03/29 07:06:05;;;;;;;35.23;17.67;;;13.40;99.90;;;;;;4921062;29;20216;-72
2022/03/29 07:08:33;;;;;;;34.87;18.50;;;13.50;99.90;;;;;;4917210;29;20211;-71
2022/03/29 07:11:21;;;;;;;37.03;19.43;;;13.60;99.90;;;;;;4922338;29;20464;-72
2022/03/29 07:13:48;;;;;;;38.70;20.07;;;13.80;99.90;;;;;;4923445;29;20221;-71
2022/03/29 07:16:15;;;;;;;40.87;20.23;;;13.90;99.90;;;;;;4923434;29;20240;-73
2022/03/29 07:18:46;;;;;;;40.43;21.30;;;14.00;99.90;;;;;;4924512;29;20553;-73
2022/03/29 07:21:13;;;;;;;40.33;20.03;;;14.10;99.90;;;;;;4920439;29;20205;-70
2022/03/29 07:23:40;;;;;;;40.23;20.97;;;14.10;99.90;;;;;;4926920;29;20205;-70
2022/03/29 07:26:07;;;;;;;42.40;20.83;;;14.20;99.90;;;;;;4921247;29;20214;-70
2022/03/29 07:28:34;;;;;;;39.13;20.23;;;14.30;99.90;;;;;;4918004;29;20217;-71
2022/03/29 07:31:00;;;;;;;40.23;21.13;;;14.50;99.90;;;;;;4929531;29;20227;-69
2022/03/29 07:33:27;;;;;;;40.33;20.60;;;14.40;99.90;;;;;;4917904;29;20297;-70
2022/03/29 07:35:55;;;;;;;39.43;20.10;;;14.60;99.90;;;;;;4923754;29;20227;-70
2022/03/29 07:38:22;;;;;;;34.37;19.90;;;14.70;99.90;;;;;;4920287;29;20645;-72
2022/03/29 07:40:48;;;;;;;41.63;20.93;;;15.00;99.90;;;;;;4921173;29;20199;-70
2022/03/29 07:43:15;;;;;;;39.17;21.50;;;15.20;99.90;;;;;;4923886;29;20210;-69
2022/03/29 07:45:49;;;;;;;41.00;21.07;;;15.20;99.90;;;;;;4920475;29;20219;-72
2022/03/29 07:48:15;;;;;;;37.07;20.97;;;15.30;99.90;;;;;;4929584;29;20285;-71
2022/03/29 07:51:02;;;;;;;44.20;22.13;;;15.40;99.90;;;;;;4927861;29;20728;-71
2022/03/29 07:53:29;;;;;;;41.67;22.17;;;15.60;99.90;;;;;;4926154;29;20202;-70
2022/03/29 07:55:56;;;;;;;39.97;20.37;;;15.70;99.90;;;;;;4925702;29;20234;-71
2022/03/29 07:58:23;;;;;;;42.47;20.63;;;15.80;99.90;;;;;;4931762;29;20230;-70
2022/03/29 08:00:52;;;;;;;44.47;22.03;;;15.80;99.90;;;;;;4919356;29;20202;-73
2022/03/29 08:03:21;;;;;;;42.83;22.73;;;15.90;99.90;;;;;;4911158;29;20195;-70
2022/03/29 08:05:49;;;;;;;43.20;21.30;;;15.90;99.90;;;;;;4923451;29;20626;-70
2022/03/29 08:08:16;;;;;;;44.50;21.20;;;16.00;99.90;;;;;;4926346;29;20309;-70
2022/03/29 08:10:45;;;;;;;50.00;22.87;;;16.10;99.90;;;;;;4923137;29;20211;-70
2022/03/29 08:13:12;;;;;;;44.43;22.10;;;16.20;99.90;;;;;;4929023;29;20206;-70
2022/03/29 08:15:40;;;;;;;50.20;22.27;;;16.30;99.90;;;;;;4922243;29;20229;-72
2022/03/29 08:18:07;;;;;;;50.43;21.50;;;16.60;99.90;;;;;;4923850;29;20307;-71
2022/03/29 08:20:36;;;;;;;41.40;21.30;;;16.60;99.90;;;;;;4929961;29;20199;-70
2022/03/29 08:23:03;;;;;;;46.80;20.83;;;16.80;99.90;;;;;;4927552;29;20221;-70
2022/03/29 08:25:32;;;;;;;45.13;21.40;;;17.00;99.90;;;;;;4923585;29;20232;-70
2022/03/29 08:28:00;;;;;;;42.80;21.63;;;17.30;99.90;;;;;;4920287;29;20313;-70
2022/03/29 08:30:29;;;;;;;42.90;21.47;;;17.30;99.90;;;;;;4930818;29;20294;-70
2022/03/29 08:32:59;;;;;;;44.77;20.90;;;17.50;99.90;;;;;;4932807;29;20289;-70
2022/03/29 08:35:29;;;;;;;40.63;21.80;;;17.70;99.90;;;;;;4923477;29;20309;-70
2022/03/29 08:37:55;;;;;;;47.50;23.33;;;17.90;99.90;;;;;;4926230;29;20223;-70
2022/03/29 08:40:45;;;;;;;43.87;21.37;;;17.80;99.90;;;;;;4929504;29;20206;-70
2022/03/29 08:43:14;;;;;;;41.57;21.53;;;17.80;99.90;;;;;;4931568;29;20199;-70
2022/03/29 08:45:47;;;;;;;49.03;23.20;;;17.80;99.90;;;;;;4930403;29;20219;-71
2022/03/29 08:48:15;;;;;;;47.50;23.17;;;18.10;99.90;;;;;;4914823;29;20222;-70
2022/03/29 08:50:42;;;;;;;45.53;21.43;;;18.20;99.90;;;;;;4930839;29;20206;-70
2022/03/29 08:53:11;;;;;;;42.83;21.73;;;18.40;99.90;;;;;;4919467;29;20574;-71
2022/03/29 08:55:42;;;;;;;41.77;22.53;;;18.60;99.90;;;;;;4930680;29;20600;-71
2022/03/29 08:58:09;;;;;;;49.60;23.97;;;18.70;99.90;;;;;;4903825;29;20231;-70
2022/03/29 09:00:36;;;;;;;41.27;22.33;;;18.70;99.90;;;;;;4923119;29;20199;-71
2022/03/29 09:03:02;;;;;;;40.70;22.33;;;18.60;99.90;;;;;;4931515;29;20202;-70
2022/03/29 09:05:32;;;;;;;42.60;21.77;;;18.60;99.90;;;;;;4930402;29;20219;-71
2022/03/29 09:08:03;;;;;;;47.37;22.33;;;18.70;99.90;;;;;;4926467;29;20226;-72
2022/03/29 09:10:48;;;;;;;45.97;22.23;;;18.80;99.90;;;;;;4928975;29;20651;-71
2022/03/29 09:13:21;;;;;;;51.07;24.37;;;18.60;99.90;;;;;;4919038;29;20204;-70
2022/03/29 09:15:50;;;;;;;54.07;24.53;;;18.50;99.90;;;;;;4928158;29;20234;-70
2022/03/29 09:18:17;;;;;;;48.40;22.03;;;18.00;99.90;;;;;;4924089;29;20246;-71
2022/03/29 09:20:45;;;;;;;48.70;23.53;;;18.10;99.90;;;;;;4924443;29;20199;-70
2022/03/29 09:23:17;;;;;;;43.80;22.60;;;18.50;99.90;;;;;;4920479;29;20235;-73
2022/03/29 09:25:48;;;;;;;52.63;22.73;;;18.60;99.90;;;;;;4926337;29;20730;-69
2022/03/29 09:28:17;;;;;;;49.17;23.27;;;18.60;99.90;;;;;;4927419;29;20589;-69
2022/03/29 09:30:49;;;;;;;41.23;21.57;;;18.60;99.90;;;;;;4921222;29;20324;-68
2022/03/29 09:33:32;;;;;;;47.83;22.17;;;18.60;99.90;;;;;;4924948;29;20213;-68
2022/03/29 09:36:10;;;;;;;42.40;21.70;;;18.60;99.90;;;;;;4924977;29;20270;-71
2022/03/29 09:38:40;;;;;;;43.03;21.43;;;18.30;99.90;;;;;;4928224;29;20232;-70
2022/03/29 09:41:28;;;;;;;45.97;22.67;;;18.20;99.90;;;;;;4920590;29;20195;-72
2022/03/29 09:44:09;;;;;;;45.70;22.90;;;18.30;99.90;;;;;;4927135;29;20225;-72
2022/03/29 09:46:55;;;;;;;45.03;22.60;;;18.10;99.90;;;;;;4918805;29;20219;-70
2022/03/29 09:49:22;;;;;;;39.80;21.03;;;18.40;99.90;;;;;;4903129;29;20257;-71
2022/03/29 09:52:09;;;;;;;37.23;19.80;;;18.50;99.90;;;;;;4923040;29;20194;-70
2022/03/29 09:54:40;;;;;;;40.90;19.50;;;18.70;99.90;;;;;;4913413;29;20199;-71
2022/03/29 09:57:07;;;;;;;37.53;19.53;;;19.00;99.90;;;;;;4931610;29;20227;-70
2022/03/29 09:59:36;;;;;;;35.97;18.40;;;19.10;99.90;;;;;;4922549;29;20215;-71
2022/03/29 10:02:03;;;;;;;33.83;16.90;;;19.30;99.90;;;;;;4917854;29;20234;-71
2022/03/29 10:04:30;;;;;;;28.27;15.87;;;19.20;99.90;;;;;;4927689;29;20287;-71
2022/03/29 10:07:01;;;;;;;25.23;13.50;;;19.00;99.90;;;;;;4933258;29;20674;-70
2022/03/29 10:09:33;;;;;;;26.77;14.33;;;19.20;99.90;;;;;;4915161;29;20218;-71
2022/03/29 10:12:05;;;;;;;26.17;14.20;;;19.30;99.90;;;;;;4930062;29;20379;-70
2022/03/29 10:14:40;;;;;;;26.33;13.23;;;19.40;99.90;;;;;;4916135;29;20278;-71
2022/03/29 10:17:08;;;;;;;26.47;15.00;;;19.50;99.90;;;;;;4927895;29;20238;-70
2022/03/29 10:19:38;;;;;;;25.40;13.73;;;19.60;99.90;;;;;;4927027;29;20226;-70
2022/03/29 10:22:06;;;;;;;23.40;12.93;;;19.70;99.90;;;;;;4918404;29;20207;-71
2022/03/29 10:24:33;;;;;;;22.90;13.87;;;19.90;99.90;;;;;;4927275;29;20199;-70
2022/03/29 10:27:01;;;;;;;29.42;13.68;;;20.00;99.90;;;;;;4925486;29;20222;-70
2022/03/29 10:29:29;;;;;;;26.80;12.67;;;20.10;99.90;;;;;;4926937;29;20221;-72
2022/03/29 10:32:07;;;;;;;27.67;13.83;;;20.10;99.90;;;;;;4924197;29;20226;-72
2022/03/29 10:34:40;;;;;;;25.80;14.60;;;20.20;99.90;;;;;;4929073;29;20206;-72
2022/03/29 10:37:18;;;;;;;25.33;13.97;;;19.70;99.90;;;;;;4925630;29;20694;-70
2022/03/29 10:39:49;;;;;;;25.20;14.10;;;19.30;99.90;;;;;;4915952;29;20230;-70
2022/03/29 10:42:30;;;;;;;27.80;13.63;;;19.50;99.90;;;;;;4907434;29;20195;-72
2022/03/29 10:45:09;;;;;;;26.70;14.33;;;19.60;99.90;;;;;;4917603;29;20214;-72
2022/03/29 10:47:59;;;;;;;25.50;14.03;;;19.90;99.90;;;;;;4919850;29;20207;-69
2022/03/29 10:50:55;;;;;;;25.10;13.20;;;20.00;99.90;;;;;;4919885;29;20199;-68
2022/03/29 10:53:32;;;;;;;29.30;13.53;;;20.20;99.90;;;;;;4926807;29;20234;-69
2022/03/29 10:56:16;;;;;;;26.00;13.60;;;20.30;99.90;;;;;;4922552;29;20216;-68
2022/03/29 10:59:01;;;;;;;25.07;12.90;;;20.20;99.90;;;;;;4924812;29;20235;-68
2022/03/29 11:01:29;;;;;;;23.55;12.63;;;20.50;99.90;;;;;;4926194;29;20267;-68
2022/03/29 11:04:28;;;;;;;25.50;13.32;;;20.50;99.90;;;;;;4918051;29;20195;-68
2022/03/29 11:07:07;;;;;;;32.00;13.20;;;20.20;99.90;;;;;;4923618;29;20744;-69
2022/03/29 11:09:35;;;;;;;23.98;12.50;;;20.00;99.90;;;;;;4928364;29;20209;-68
2022/03/29 11:12:03;;;;;;;27.00;13.68;;;20.30;99.90;;;;;;4929573;29;20207;-69
2022/03/29 11:14:30;;;;;;;27.42;13.10;;;20.60;99.90;;;;;;4927185;29;20200;-69
2022/03/29 11:17:09;;;;;;;25.88;12.65;;;20.80;99.90;;;;;;4911821;29;20228;-69
2022/03/29 11:19:47;;;;;;;25.77;13.25;;;20.90;99.90;;;;;;4929806;29;20219;-71
2022/03/29 11:22:34;;;;;;;24.88;13.07;;;21.10;99.90;;;;;;4920922;29;20612;-73
2022/03/29 11:25:03;;;;;;;23.35;13.57;;;21.00;99.90;;;;;;4911425;29;20230;-71
2022/03/29 11:27:32;;;;;;;23.70;12.30;;;21.20;99.90;;;;;;4927686;29;20698;-71
2022/03/29 11:30:02;;;;;;;30.35;12.43;;;21.00;99.90;;;;;;4926502;29;20576;-71
2022/03/29 11:32:30;;;;;;;17.98;11.18;;;21.10;99.90;;;;;;4924442;29;20210;-70
2022/03/29 11:34:58;;;;;;;20.05;11.82;;;21.10;99.90;;;;;;4917004;29;20208;-72
2022/03/29 11:37:31;;;;;;;22.08;11.82;;;21.00;99.90;;;;;;4929557;29;20607;-72
2022/03/29 11:40:02;;;;;;;22.85;12.35;;;21.10;99.90;;;;;;4927354;29;20235;-69
2022/03/29 11:42:48;;;;;;;21.48;11.45;;;21.20;99.90;;;;;;4929927;29;20472;-71
2022/03/29 11:45:23;;;;;;;22.30;11.35;;;21.00;99.90;;;;;;4922161;29;20199;-72
2022/03/29 11:47:57;;;;;;;22.38;12.75;;;20.60;99.90;;;;;;4924229;29;20205;-69
2022/03/29 11:50:54;;;;;;;18.88;11.45;;;20.90;99.90;;;;;;4939126;29;20285;-69
2022/03/29 11:53:27;;;;;;;19.90;11.55;;;21.00;99.90;;;;;;4923217;29;20234;-70
2022/03/29 11:55:53;;;;;;;22.00;11.52;;;21.10;99.90;;;;;;4920618;29;20729;-70
2022/03/29 11:58:33;;;;;;;21.98;11.25;;;21.30;99.90;;;;;;4927372;29;20199;-69
2022/03/29 12:01:18;;;;;;;18.67;11.45;;;21.50;99.90;;;;;;4926675;29;20191;-70
2022/03/29 12:03:54;;;;;;;22.70;11.55;;;21.60;99.90;;;;;;4928675;29;20231;-69
2022/03/29 12:06:29;;;;;;;20.77;11.07;;;21.60;99.90;;;;;;4926281;29;20218;-69
2022/03/29 12:08:56;;;;;;;20.88;11.55;;;21.50;99.90;;;;;;4909678;29;20669;-70
2022/03/29 12:11:39;;;;;;;20.73;11.63;;;21.20;99.90;;;;;;4930610;29;20203;-72
2022/03/29 12:14:08;;;;;;;22.20;11.05;;;21.10;99.90;;;;;;4927770;29;20198;-70
2022/03/29 12:16:39;;;;;;;25.35;11.90;;;20.90;99.90;;;;;;4924710;29;20237;-69
2022/03/29 12:19:13;;;;;;;17.33;10.70;;;21.00;99.90;;;;;;4928081;29;20277;-70
2022/03/29 12:21:44;;;;;;;22.02;12.10;;;21.10;99.90;;;;;;4920695;29;20202;-69
2022/03/29 12:24:13;;;;;;;20.13;11.55;;;21.00;99.90;;;;;;4926850;29;20228;-69
2022/03/29 12:26:51;;;;;;;20.85;11.55;;;21.20;99.90;;;;;;4926520;29;20222;-69
2022/03/29 12:29:21;;;;;;;19.83;11.45;;;21.10;99.90;;;;;;4929726;29;20213;-69
2022/03/29 12:31:49;;;;;;;21.13;11.98;;;21.20;99.90;;;;;;4924387;29;20203;-69
2022/03/29 12:34:23;;;;;;;19.80;11.27;;;21.00;99.90;;;;;;4914199;29;20227;-70
2022/03/29 12:36:55;;;;;;;24.92;11.85;;;21.00;99.90;;;;;;4919100;29;20222;-70
2022/03/29 12:39:22;;;;;;;21.17;11.43;;;20.80;99.90;;;;;;4927645;29;20552;-69
2022/03/29 12:41:54;;;;;;;22.75;11.40;;;21.00;99.90;;;;;;4931843;29;20202;-68
2022/03/29 12:44:34;;;;;;;24.45;11.98;;;21.30;99.90;;;;;;4918224;29;20210;-68
2022/03/29 12:47:02;;;;;;;23.95;11.35;;;21.50;99.90;;;;;;4919358;29;20214;-68
2022/03/29 12:49:29;;;;;;;25.65;11.27;;;21.50;99.90;;;;;;4931267;29;20198;-68
2022/03/29 12:52:00;;;;;;;21.70;10.65;;;21.70;99.90;;;;;;4925491;29;20210;-68